Time;durP1;ratioP1;P1;durP2;ratioP2;P2;SDS_P1;SDS_P2;PMS_P1;PMS_P2;Temp;Humidity;BMP_temperature;BMP_pressure;BME280_temperature;BME280_humidity;BME280_pressure;Samples;Min_cycle;Max_cycle;Signal;HPM_P1;HPM_P2
2021/03/21 00:02:04;;;;;;;31.10;28.88;;;0.70;99.90;;;;;;5014693;28;20034;-72
2021/03/21 00:04:29;;;;;;;31.55;29.38;;;0.80;99.90;;;;;;5014907;28;20030;-71
2021/03/21 00:06:55;;;;;;;34.50;32.38;;;0.80;99.90;;;;;;5014905;28;20480;-71
2021/03/21 00:09:20;;;;;;;27.38;25.30;;;0.70;99.90;;;;;;5014669;28;20030;-72
2021/03/21 00:11:46;;;;;;;31.20;29.17;;;0.80;99.90;;;;;;5014446;28;20101;-72
2021/03/21 00:14:11;;;;;;;22.05;20.45;;;0.70;99.90;;;;;;5013330;28;20026;-71
2021/03/21 00:16:38;;;;;;;21.67;20.10;;;0.70;99.90;;;;;;5014548;28;20488;-71
2021/03/21 00:19:07;;;;;;;10.13;9.07;;;0.60;99.90;;;;;;5013236;28;20022;-72
2021/03/21 00:21:34;;;;;;;15.13;13.98;;;0.70;99.90;;;;;;5014241;28;20084;-71
2021/03/21 00:24:00;;;;;;;25.42;23.88;;;0.60;99.90;;;;;;5014509;28;20025;-72
2021/03/21 00:26:25;;;;;;;26.02;24.42;;;0.60;99.90;;;;;;5014483;28;20048;-71
2021/03/21 00:28:51;;;;;;;10.32;9.35;;;0.70;99.90;;;;;;5012793;28;20048;-71
2021/03/21 00:31:17;;;;;;;16.35;15.13;;;0.60;99.90;;;;;;5014159;28;20034;-72
2021/03/21 00:33:43;;;;;;;21.90;20.50;;;0.60;99.90;;;;;;5014235;28;20037;-72
2021/03/21 00:36:13;;;;;;;27.48;25.75;;;0.70;99.90;;;;;;5014278;28;20018;-72
2021/03/21 00:38:45;;;;;;;28.80;26.90;;;0.70;99.90;;;;;;5014090;28;20032;-71
2021/03/21 00:41:13;;;;;;;33.85;31.77;;;0.70;99.90;;;;;;5013917;28;20057;-72
2021/03/21 00:43:39;;;;;;;28.88;27.08;;;0.70;99.90;;;;;;5012104;28;20040;-72
2021/03/21 00:46:05;;;;;;;9.60;8.60;;;0.70;99.90;;;;;;5003059;28;20037;-71
2021/03/21 00:48:37;;;;;;;16.60;15.43;;;0.70;99.90;;;;;;5013922;28;20393;-72
2021/03/21 00:51:03;;;;;;;17.92;16.70;;;0.80;99.90;;;;;;5013713;28;20033;-72
2021/03/21 00:53:28;;;;;;;31.92;29.90;;;0.80;99.90;;;;;;5013836;28;20032;-71
2021/03/21 00:55:54;;;;;;;36.10;34.13;;;0.80;99.90;;;;;;5013923;28;20022;-71
2021/03/21 00:58:20;;;;;;;28.05;26.30;;;0.90;99.90;;;;;;5013600;28;20037;-71
2021/03/21 01:00:55;;;;;;;20.52;19.23;;;0.70;99.90;;;;;;5013533;28;20042;-71
2021/03/21 01:03:21;;;;;;;23.45;21.85;;;0.80;99.90;;;;;;5013717;28;20026;-72
2021/03/21 01:05:51;;;;;;;30.08;28.42;;;0.80;99.90;;;;;;5012540;28;20389;-71
2021/03/21 01:08:21;;;;;;;20.52;19.10;;;0.90;99.90;;;;;;5012206;28;20026;-72
2021/03/21 01:10:48;;;;;;;9.40;8.40;;;0.70;99.90;;;;;;5013211;28;20480;-72
2021/03/21 01:13:14;;;;;;;10.95;9.85;;;0.80;99.90;;;;;;5013522;28;20022;-72
2021/03/21 01:15:40;;;;;;;17.15;15.75;;;0.80;99.90;;;;;;5012172;28;20060;-71
2021/03/21 01:18:06;;;;;;;21.02;19.60;;;0.70;99.90;;;;;;5013404;28;20057;-72
2021/03/21 01:20:32;;;;;;;21.63;20.33;;;0.70;99.90;;;;;;5012139;28;20068;-72
2021/03/21 01:22:58;;;;;;;21.70;20.20;;;0.70;99.90;;;;;;5017865;28;20034;-72
2021/03/21 01:25:28;;;;;;;24.73;23.20;;;0.70;99.90;;;;;;5021547;28;20388;-72
2021/03/21 01:27:55;;;;;;;23.55;22.08;;;0.70;99.90;;;;;;5013176;28;20034;-72
2021/03/21 01:30:24;;;;;;;32.03;30.00;;;0.70;99.90;;;;;;5013188;28;20049;-71
2021/03/21 01:32:51;;;;;;;34.45;32.47;;;0.70;99.90;;;;;;5012895;28;20014;-72
2021/03/21 01:35:17;;;;;;;26.13;24.55;;;0.60;99.90;;;;;;5013128;28;20384;-71
2021/03/21 01:37:42;;;;;;;23.38;21.90;;;0.80;99.90;;;;;;5013022;28;20022;-72
2021/03/21 01:40:11;;;;;;;23.77;22.38;;;0.60;99.90;;;;;;5011758;28;20068;-72
2021/03/21 01:42:42;;;;;;;30.95;29.23;;;0.70;99.90;;;;;;5012781;28;20029;-71
2021/03/21 01:45:38;;;;;;;27.17;25.65;;;0.60;99.90;;;;;;5012933;28;20034;-72
2021/03/21 01:48:45;;;;;;;22.00;20.50;;;0.60;99.90;;;;;;5012743;28;20030;-72
2021/03/21 01:51:16;;;;;;;9.45;8.45;;;0.70;99.90;;;;;;5012635;28;20022;-71
2021/03/21 01:53:45;;;;;;;17.85;16.52;;;0.60;99.90;;;;;;5012840;28;20033;-72
2021/03/21 01:56:11;;;;;;;19.88;18.58;;;0.60;99.90;;;;;;5012708;28;20451;-72
2021/03/21 01:58:38;;;;;;;9.02;8.13;;;0.70;99.90;;;;;;5012740;28;20049;-72
2021/03/21 02:01:15;;;;;;;13.05;12.10;;;0.70;99.90;;;;;;5012387;28;20026;-72
2021/03/21 02:03:42;;;;;;;28.83;27.23;;;0.70;99.90;;;;;;5012649;28;20034;-72
2021/03/21 02:06:35;;;;;;;36.17;34.22;;;0.60;99.90;;;;;;5011392;28;20026;-72
2021/03/21 02:09:06;;;;;;;36.40;34.30;;;0.60;99.90;;;;;;5011763;28;20500;-72
2021/03/21 02:11:44;;;;;;;28.90;27.10;;;0.60;99.90;;;;;;5012602;28;20464;-71
2021/03/21 02:14:34;;;;;;;10.23;9.10;;;0.60;99.90;;;;;;5012687;28;20058;-71
2021/03/21 02:17:09;;;;;;;17.77;16.60;;;0.60;99.90;;;;;;5012314;28;20076;-71
2021/03/21 02:20:04;;;;;;;22.75;21.30;;;0.70;99.90;;;;;;5011120;28;20080;-72
2021/03/21 02:22:33;;;;;;;33.95;32.15;;;0.70;99.90;;;;;;5010800;28;20068;-71
2021/03/21 02:25:36;;;;;;;28.23;26.60;;;0.80;99.90;;;;;;5012285;28;20030;-72
2021/03/21 02:28:26;;;;;;;29.95;28.20;;;0.70;99.90;;;;;;5010785;28;20408;-72
2021/03/21 02:30:55;;;;;;;27.48;25.77;;;0.70;99.90;;;;;;5011868;28;20018;-71
2021/03/21 02:33:36;;;;;;;28.83;27.17;;;0.70;99.90;;;;;;5012418;28;20430;-71
2021/03/21 02:36:12;;;;;;;32.80;30.90;;;0.60;99.90;;;;;;5012071;28;20030;-72
2021/03/21 02:38:44;;;;;;;;;;;0.60;99.90;;;;;;5012572;28;20085;-72
2021/03/21 02:41:17;;;;;;;30.45;28.45;;;0.60;99.90;;;;;;5003312;28;19971;-72
2021/03/21 02:43:50;;;;;;;30.35;28.55;;;0.70;99.90;;;;;;5007268;28;20108;-73
2021/03/21 02:46:38;;;;;;;9.85;8.95;;;0.70;99.90;;;;;;5011965;28;20112;-73
2021/03/21 02:49:27;;;;;;;16.92;15.70;;;0.70;99.90;;;;;;5011900;28;20029;-73
2021/03/21 02:52:01;;;;;;;26.88;25.38;;;0.80;99.90;;;;;;5010456;28;20026;-72
2021/03/21 02:54:32;;;;;;;28.52;26.92;;;0.80;99.90;;;;;;5012107;28;20350;-72
2021/03/21 02:57:05;;;;;;;29.23;27.33;;;0.70;99.90;;;;;;5011904;28;20022;-73
2021/03/21 02:59:35;;;;;;;26.88;25.30;;;0.80;99.90;;;;;;5010579;28;20045;-72
2021/03/21 03:02:21;;;;;;;25.83;24.25;;;0.80;99.90;;;;;;5003697;28;20025;-72
2021/03/21 03:05:09;;;;;;;;;;;0.80;99.90;;;;;;5031905;28;20018;-70
2021/03/21 03:07:46;;;;;;;34.25;32.35;;;0.80;99.90;;;;;;5030156;28;19916;-71
2021/03/21 03:10:25;;;;;;;31.67;29.80;;;0.80;99.90;;;;;;5031364;28;20487;-71
2021/03/21 03:13:09;;;;;;;24.35;22.75;;;0.80;99.90;;;;;;5031256;28;20025;-71
2021/03/21 03:15:37;;;;;;;20.45;19.15;;;0.80;99.90;;;;;;5030046;28;20028;-73
2021/03/21 03:18:21;;;;;;;23.13;21.55;;;0.80;99.90;;;;;;5011608;28;20030;-72
2021/03/21 03:20:49;;;;;;;21.67;20.30;;;0.80;99.90;;;;;;5011368;28;20032;-71
2021/03/21 03:23:29;;;;;;;27.65;25.95;;;0.80;99.90;;;;;;5022426;28;20469;-71
2021/03/21 03:26:12;;;;;;;22.50;21.10;;;0.80;99.90;;;;;;5019175;28;20036;-71
2021/03/21 03:29:05;;;;;;;23.83;22.13;;;0.80;99.90;;;;;;5015523;28;20048;-71
2021/03/21 03:31:40;;;;;;;28.65;26.85;;;0.80;99.90;;;;;;5015360;28;20100;-71
2021/03/21 03:34:06;;;;;;;22.17;20.90;;;0.90;99.90;;;;;;5015302;28;20029;-71
2021/03/21 03:36:33;;;;;;;21.13;19.55;;;1.00;99.90;;;;;;5015430;28;20380;-71
2021/03/21 03:38:59;;;;;;;29.05;27.35;;;0.80;99.90;;;;;;5015231;28;20028;-72
2021/03/21 03:41:42;;;;;;;22.38;20.92;;;0.90;99.90;;;;;;5015204;28;20385;-72
2021/03/21 03:44:14;;;;;;;22.77;21.30;;;0.80;99.90;;;;;;5015122;28;20061;-72
2021/03/21 03:47:08;;;;;;;23.50;21.95;;;0.80;99.90;;;;;;5014091;28;20068;-73
2021/03/21 03:49:52;;;;;;;33.25;31.23;;;0.80;99.90;;;;;;5013883;28;20115;-72
2021/03/21 03:53:05;;;;;;;18.25;17.05;;;0.80;99.90;;;;;;5007380;28;20030;-72
2021/03/21 03:55:34;;;;;;;29.40;27.60;;;0.80;99.90;;;;;;4995347;28;20026;-72
2021/03/21 03:58:08;;;;;;;19.30;17.92;;;0.80;99.90;;;;;;5029091;28;20038;-72
2021/03/21 04:00:45;;;;;;;18.88;17.63;;;0.80;99.90;;;;;;5033375;28;20559;-72
2021/03/21 04:03:27;;;;;;;18.58;17.17;;;0.80;99.90;;;;;;5034598;28;20026;-71
2021/03/21 04:06:30;;;;;;;21.52;19.98;;;0.80;99.90;;;;;;5034634;28;20060;-72
2021/03/21 04:09:02;;;;;;;20.75;19.35;;;0.80;99.90;;;;;;5033016;28;20056;-72
2021/03/21 04:11:54;;;;;;;22.33;20.95;;;0.80;99.90;;;;;;5033065;28;20032;-71
2021/03/21 04:14:24;;;;;;;22.15;20.73;;;0.80;99.90;;;;;;5034451;28;20087;-73
2021/03/21 04:17:08;;;;;;;26.73;25.15;;;0.80;99.90;;;;;;5022936;28;20022;-72
2021/03/21 04:19:39;;;;;;;24.55;23.05;;;0.90;99.90;;;;;;5013326;28;20033;-74
2021/03/21 04:22:15;;;;;;;20.92;19.63;;;0.80;99.90;;;;;;5014274;28;20018;-72
2021/03/21 04:24:52;;;;;;;21.05;19.75;;;0.90;99.90;;;;;;5014619;28;20052;-74
2021/03/21 04:27:25;;;;;;;29.27;27.55;;;0.90;99.90;;;;;;5014386;28;20044;-73
2021/03/21 04:30:00;;;;;;;26.70;24.70;;;0.90;99.90;;;;;;5014259;28;20017;-71
2021/03/21 04:32:32;;;;;;;23.90;22.50;;;0.90;99.90;;;;;;5013589;28;20089;-72
2021/03/21 04:35:04;;;;;;;26.67;25.05;;;0.90;99.90;;;;;;5014320;28;20056;-72
2021/03/21 04:37:31;;;;;;;37.58;35.35;;;0.90;99.90;;;;;;5014155;28;20084;-72
2021/03/21 04:39:58;;;;;;;30.85;29.17;;;1.00;99.90;;;;;;5014185;28;20403;-72
2021/03/21 04:42:35;;;;;;;18.50;17.25;;;0.90;99.90;;;;;;5013909;28;20072;-73
2021/03/21 04:45:10;;;;;;;10.77;9.77;;;1.00;99.90;;;;;;5013909;28;20034;-73
2021/03/21 04:47:46;;;;;;;23.00;21.52;;;1.00;99.90;;;;;;5014159;28;20083;-72
2021/03/21 04:50:14;;;;;;;20.90;19.60;;;0.90;99.90;;;;;;5013959;28;20033;-75
2021/03/21 04:52:47;;;;;;;17.90;16.70;;;0.90;99.90;;;;;;5012495;28;20026;-73
2021/03/21 04:55:44;;;;;;;24.85;23.25;;;0.90;99.90;;;;;;5013909;28;20026;-72
2021/03/21 04:58:17;;;;;;;23.65;22.13;;;0.90;99.90;;;;;;5013644;28;20069;-73
2021/03/21 05:00:47;;;;;;;16.35;15.25;;;0.90;99.90;;;;;;5013894;28;20062;-72
2021/03/21 05:03:35;;;;;;;20.83;19.42;;;0.80;99.90;;;;;;5013821;28;20387;-73
2021/03/21 05:06:10;;;;;;;23.55;21.98;;;0.90;99.90;;;;;;5000676;28;20026;-72
2021/03/21 05:08:48;;;;;;;17.73;16.23;;;0.90;99.90;;;;;;5001101;28;20032;-73
2021/03/21 05:11:16;;;;;;;16.27;15.07;;;0.90;99.90;;;;;;5011767;28;20034;-73
2021/03/21 05:14:01;;;;;;;16.15;14.95;;;0.90;99.90;;;;;;5002857;28;20376;-72
2021/03/21 05:16:32;;;;;;;18.73;17.35;;;0.90;99.90;;;;;;5022886;28;20022;-72
2021/03/21 05:19:30;;;;;;;21.25;19.80;;;0.90;99.90;;;;;;5013591;28;20034;-71
2021/03/21 05:22:03;;;;;;;10.77;8.10;;;0.90;99.90;;;;;;5013360;28;20056;-71
2021/03/21 05:24:38;;;;;;;10.30;9.20;;;0.90;99.90;;;;;;5031704;28;20129;-70
2021/03/21 05:27:18;;;;;;;14.63;13.23;;;0.90;99.90;;;;;;5020823;28;20022;-72
2021/03/21 05:29:56;;;;;;;14.55;13.48;;;1.00;99.90;;;;;;5001296;28;20106;-71
2021/03/21 05:32:23;;;;;;;22.33;20.83;;;0.90;99.90;;;;;;5002885;28;20029;-71
2021/03/21 05:34:52;;;;;;;16.00;14.80;;;1.00;99.90;;;;;;5023908;28;20709;-72
2021/03/21 05:37:49;;;;;;;23.15;21.73;;;0.90;99.90;;;;;;5026599;28;20069;-71
2021/03/21 05:40:55;;;;;;;26.52;24.92;;;0.90;99.90;;;;;;5026466;28;20051;-72
2021/03/21 05:43:32;;;;;;;29.20;27.42;;;0.90;99.90;;;;;;5025753;28;20530;-72
2021/03/21 05:46:36;;;;;;;31.10;29.17;;;0.90;99.90;;;;;;5023764;28;20033;-71
2021/03/21 05:49:19;;;;;;;31.83;29.67;;;1.00;99.90;;;;;;5007542;28;20028;-71
2021/03/21 05:52:13;;;;;;;30.30;28.00;;;1.00;99.90;;;;;;5024559;28;20029;-72
2021/03/21 05:55:07;;;;;;;34.20;31.85;;;1.00;99.90;;;;;;5020557;28;20021;-72
2021/03/21 05:57:50;;;;;;;25.50;23.73;;;1.00;99.90;;;;;;5002860;28;20053;-72
2021/03/21 06:00:36;;;;;;;22.55;20.67;;;1.10;99.90;;;;;;5031280;28;20357;-70
2021/03/21 06:03:37;;;;;;;;;;;1.10;99.90;;;;;;5018324;28;20488;-70
2021/03/21 06:06:22;;;;;;;23.30;21.73;;;1.10;99.90;;;;;;4997959;28;19952;-71
2021/03/21 06:09:11;;;;;;;25.10;23.50;;;1.10;99.90;;;;;;5020978;28;20042;-70
2021/03/21 06:12:05;;;;;;;24.88;23.13;;;1.20;99.90;;;;;;5017749;28;20438;-71
2021/03/21 06:14:55;;;;;;;22.38;21.02;;;1.20;99.90;;;;;;5016771;28;20018;-70
2021/03/21 06:17:45;;;;;;;24.75;23.15;;;1.20;99.90;;;;;;5009168;28;20064;-70
2021/03/21 06:20:13;;;;;;;31.85;30.05;;;1.20;99.90;;;;;;5001703;28;20033;-70
2021/03/21 06:23:04;;;;;;;29.92;27.85;;;1.20;99.90;;;;;;5014499;28;20021;-70
2021/03/21 06:25:53;;;;;;;21.73;20.10;;;1.20;99.90;;;;;;5019626;28;20057;-70
2021/03/21 06:28:55;;;;;;;24.65;22.95;;;1.20;99.90;;;;;;5021325;28;20060;-70
2021/03/21 06:31:48;;;;;;;30.48;28.17;;;1.20;99.90;;;;;;5024527;28;20099;-70
2021/03/21 06:34:25;;;;;;;27.70;26.02;;;1.20;99.90;;;;;;5012237;28;20021;-70
2021/03/21 06:37:03;;;;;;;23.80;22.27;;;1.20;99.90;;;;;;5012376;28;20030;-70
2021/03/21 06:40:00;;;;;;;34.35;32.28;;;1.30;99.90;;;;;;5012167;28;20492;-71
2021/03/21 06:42:44;;;;;;;31.33;29.35;;;1.30;99.90;;;;;;5011375;28;20044;-70
2021/03/21 06:45:42;;;;;;;31.10;29.30;;;1.30;99.90;;;;;;5011036;28;20056;-70
2021/03/21 06:48:34;;;;;;;19.58;18.17;;;1.40;99.90;;;;;;5004641;28;20041;-71
2021/03/21 06:51:26;;;;;;;23.10;21.48;;;1.50;99.90;;;;;;5011334;28;20049;-71
2021/03/21 06:54:00;;;;;;;22.55;21.05;;;1.50;99.90;;;;;;5005854;28;20049;-71
2021/03/21 06:56:32;;;;;;;16.88;15.57;;;1.80;99.90;;;;;;5019650;28;20022;-70
2021/03/21 06:59:36;;;;;;;13.23;12.02;;;1.70;99.90;;;;;;5031747;28;20028;-71
2021/03/21 07:02:36;;;;;;;20.35;18.73;;;1.70;99.90;;;;;;5030258;28;20425;-70
2021/03/21 07:05:39;;;;;;;22.45;20.30;;;1.80;99.90;;;;;;5014024;28;20072;-71
2021/03/21 07:08:30;;;;;;;12.57;11.27;;;1.80;99.90;;;;;;5026639;28;20609;-70
2021/03/21 07:11:17;;;;;;;25.90;23.45;;;1.80;99.90;;;;;;5031337;28;20026;-71
2021/03/21 07:14:17;;;;;;;16.80;14.95;;;1.90;99.90;;;;;;5000147;28;20492;-71
2021/03/21 07:17:10;;;;;;;16.88;15.18;;;1.90;99.90;;;;;;5020141;28;20388;-70
2021/03/21 07:20:17;;;;;;;18.92;17.23;;;1.90;99.90;;;;;;5028818;28;20032;-70
2021/03/21 07:23:11;;;;;;;13.90;11.77;;;2.00;99.90;;;;;;4988451;28;20089;-70
2021/03/21 07:25:58;;;;;;;12.63;11.32;;;2.00;99.90;;;;;;5017403;28;20284;-70
2021/03/21 07:28:35;;;;;;;12.95;11.50;;;2.00;99.90;;;;;;5012950;28;20120;-70
2021/03/21 07:31:38;;;;;;;13.80;11.82;;;2.00;99.90;;;;;;5006958;28;20054;-70
2021/03/21 07:34:20;;;;;;;14.23;12.57;;;2.00;99.90;;;;;;5004346;28;20014;-71
2021/03/21 07:36:59;;;;;;;14.73;13.05;;;2.00;99.90;;;;;;5001985;28;20157;-70
2021/03/21 07:39:39;;;;;;;14.02;12.15;;;2.00;99.90;;;;;;5007960;28;20030;-69
2021/03/21 07:42:24;;;;;;;15.18;13.25;;;2.10;99.90;;;;;;5011026;28;20029;-70
2021/03/21 07:45:05;;;;;;;15.10;13.07;;;2.10;99.90;;;;;;4996034;28;20018;-71
2021/03/21 07:48:07;;;;;;;16.25;13.18;;;2.10;99.90;;;;;;5008690;28;20029;-70
2021/03/21 07:50:51;;;;;;;17.50;13.73;;;2.20;99.90;;;;;;5008079;28;20068;-70
2021/03/21 07:53:41;;;;;;;17.77;14.45;;;2.20;99.90;;;;;;5010860;28;20151;-71
2021/03/21 07:56:25;;;;;;;16.17;12.55;;;2.20;99.90;;;;;;5005641;28;20100;-70
2021/03/21 07:58:58;;;;;;;15.98;13.00;;;2.30;99.90;;;;;;5007209;28;20030;-71
2021/03/21 08:01:24;;;;;;;17.15;14.68;;;2.40;99.90;;;;;;5009530;28;20026;-71
2021/03/21 08:04:13;;;;;;;18.00;15.18;;;2.30;99.90;;;;;;5007532;28;20534;-70
2021/03/21 08:06:44;;;;;;;19.73;15.80;;;2.30;99.90;;;;;;5009423;28;20057;-70
2021/03/21 08:09:18;;;;;;;19.52;16.80;;;2.20;99.90;;;;;;5009077;28;20065;-71
2021/03/21 08:12:18;;;;;;;18.67;15.60;;;2.20;99.90;;;;;;5014279;28;20655;-70
2021/03/21 08:14:56;;;;;;;20.17;16.08;;;2.30;99.90;;;;;;5012716;28;20456;-70
2021/03/21 08:17:25;;;;;;;21.42;16.52;;;2.40;99.90;;;;;;5014443;28;20029;-71
2021/03/21 08:19:56;;;;;;;20.95;17.10;;;2.30;99.90;;;;;;5008104;28;20068;-70
2021/03/21 08:22:23;;;;;;;20.70;16.80;;;2.40;99.90;;;;;;5019253;28;20353;-70
2021/03/21 08:24:52;;;;;;;20.40;16.90;;;2.60;99.90;;;;;;5010785;28;20018;-70
2021/03/21 08:27:44;;;;;;;21.90;17.13;;;2.40;99.90;;;;;;5006428;28;20128;-71
2021/03/21 08:30:14;;;;;;;20.70;16.77;;;2.50;99.90;;;;;;5007351;28;20030;-70
2021/03/21 08:33:00;;;;;;;21.63;17.33;;;2.40;99.90;;;;;;5013491;28;20429;-71
2021/03/21 08:35:29;;;;;;;25.48;19.65;;;2.40;99.90;;;;;;5019047;28;20021;-70
2021/03/21 08:37:57;;;;;;;22.92;19.13;;;2.30;99.90;;;;;;5009212;28;20026;-71
2021/03/21 08:40:26;;;;;;;22.75;19.08;;;2.20;99.90;;;;;;5004204;28;20542;-70
2021/03/21 08:43:10;;;;;;;25.42;20.27;;;2.20;99.90;;;;;;5013766;28;20536;-70
2021/03/21 08:45:42;;;;;;;26.17;21.17;;;2.30;99.90;;;;;;5012165;28;20076;-70
2021/03/21 08:48:10;;;;;;;27.27;21.77;;;2.20;99.90;;;;;;5006193;28;20061;-71
2021/03/21 08:50:47;;;;;;;29.73;21.77;;;2.20;99.90;;;;;;5009841;28;20107;-71
2021/03/21 08:53:37;;;;;;;26.48;21.17;;;2.30;99.90;;;;;;5001961;28;20022;-71
2021/03/21 08:56:28;;;;;;;26.38;21.48;;;2.20;99.90;;;;;;5012144;28;20022;-71
2021/03/21 08:59:09;;;;;;;26.92;21.10;;;2.30;99.90;;;;;;5012267;28;20028;-70
2021/03/21 09:01:35;;;;;;;31.13;23.75;;;2.50;99.90;;;;;;5007898;28;20038;-70
2021/03/21 09:04:13;;;;;;;30.15;22.33;;;2.50;99.90;;;;;;5013585;28;20030;-70
2021/03/21 09:06:42;;;;;;;25.33;21.00;;;2.40;99.90;;;;;;5012694;28;20022;-70
2021/03/21 09:09:17;;;;;;;28.88;22.52;;;2.40;99.90;;;;;;5013098;28;20022;-70
2021/03/21 09:11:45;;;;;;;28.58;21.25;;;2.40;99.90;;;;;;5010001;28;20017;-71
2021/03/21 09:14:22;;;;;;;26.58;21.90;;;2.40;99.90;;;;;;5007949;28;20531;-71
2021/03/21 09:17:11;;;;;;;26.55;22.05;;;2.40;99.90;;;;;;5005387;28;20084;-70
2021/03/21 09:19:39;;;;;;;25.83;20.30;;;2.40;99.90;;;;;;5009365;28;20114;-70
2021/03/21 09:22:31;;;;;;;26.95;21.00;;;2.40;99.90;;;;;;5012912;28;20014;-70
2021/03/21 09:25:02;;;;;;;26.60;20.52;;;2.50;99.90;;;;;;5012767;28;20057;-71
2021/03/21 09:27:34;;;;;;;25.55;20.90;;;2.70;99.90;;;;;;5004429;28;20545;-70
2021/03/21 09:30:36;;;;;;;23.90;20.38;;;2.60;99.90;;;;;;5012655;28;20503;-71
2021/03/21 09:33:05;;;;;;;26.45;19.63;;;2.70;99.90;;;;;;5004470;28;20022;-69
2021/03/21 09:35:32;;;;;;;25.73;20.02;;;2.70;99.90;;;;;;5012375;28;20032;-70
2021/03/21 09:38:15;;;;;;;22.95;18.63;;;2.90;99.90;;;;;;5012908;28;20388;-71
2021/03/21 09:40:50;;;;;;;22.80;19.20;;;3.00;99.90;;;;;;5012141;28;20077;-71
2021/03/21 09:43:20;;;;;;;20.10;17.40;;;3.10;99.90;;;;;;5011698;28;20021;-70
2021/03/21 09:45:52;;;;;;;22.45;17.27;;;3.10;99.90;;;;;;5011269;28;20018;-70
2021/03/21 09:48:32;;;;;;;22.65;18.83;;;3.10;99.90;;;;;;5012737;28;20066;-70
2021/03/21 09:51:12;;;;;;;24.92;19.60;;;3.40;99.90;;;;;;5009348;28;20061;-70
2021/03/21 09:54:25;;;;;;;22.33;18.33;;;3.60;99.90;;;;;;5005529;28;20057;-70
2021/03/21 09:57:19;;;;;;;21.77;17.77;;;3.90;99.90;;;;;;5004081;28;20058;-71
2021/03/21 09:59:55;;;;;;;19.73;17.38;;;3.90;99.90;;;;;;5010402;28;20556;-71
2021/03/21 10:02:36;;;;;;;19.88;17.67;;;3.80;99.90;;;;;;5009083;28;20068;-70
2021/03/21 10:05:10;;;;;;;20.90;17.42;;;3.90;99.90;;;;;;5007747;28;20026;-70
2021/03/21 10:07:50;;;;;;;19.42;17.00;;;3.80;99.90;;;;;;5010532;28;20107;-70
2021/03/21 10:10:26;;;;;;;20.23;15.95;;;3.90;99.90;;;;;;5023359;28;20432;-71
2021/03/21 10:12:52;;;;;;;20.77;17.42;;;4.00;99.90;;;;;;5004879;28;20014;-71
2021/03/21 10:15:25;;;;;;;20.33;16.23;;;3.90;99.90;;;;;;5011994;28;20472;-71
2021/03/21 10:18:01;;;;;;;21.23;17.75;;;3.80;99.90;;;;;;5012056;28;20026;-70
2021/03/21 10:20:51;;;;;;;20.88;17.90;;;3.80;99.90;;;;;;5007155;28;20026;-70
2021/03/21 10:23:17;;;;;;;20.95;18.25;;;3.70;99.90;;;;;;5000924;28;20520;-71
2021/03/21 10:25:43;;;;;;;22.02;17.52;;;3.60;99.90;;;;;;5007559;28;20056;-70
2021/03/21 10:28:35;;;;;;;23.35;19.35;;;3.50;99.90;;;;;;5012132;28;20030;-71
2021/03/21 10:31:29;;;;;;;21.23;18.13;;;3.50;99.90;;;;;;5005200;28;20025;-70
2021/03/21 10:34:03;;;;;;;24.63;18.15;;;3.60;99.90;;;;;;5004732;28;20037;-70
2021/03/21 10:36:41;;;;;;;22.90;18.30;;;3.60;99.90;;;;;;5003742;28;20053;-71
2021/03/21 10:39:12;;;;;;;22.30;19.48;;;3.60;99.90;;;;;;5007420;28;20048;-70
2021/03/21 10:41:51;;;;;;;23.13;19.55;;;3.60;99.90;;;;;;5010425;28;20045;-70
2021/03/21 10:44:17;;;;;;;22.52;18.88;;;3.60;99.90;;;;;;5001476;28;20022;-70
2021/03/21 10:46:44;;;;;;;24.00;19.92;;;3.60;99.90;;;;;;5005228;28;20022;-70
2021/03/21 10:49:10;;;;;;;22.17;19.17;;;3.60;99.90;;;;;;5001254;28;20028;-70
2021/03/21 10:52:14;;;;;;;23.42;20.30;;;3.70;99.90;;;;;;5011549;28;20116;-71
2021/03/21 10:54:40;;;;;;;23.67;20.38;;;3.70;99.90;;;;;;4990521;28;20033;-70
2021/03/21 10:57:33;;;;;;;26.42;22.20;;;3.40;99.90;;;;;;4989739;28;20396;-70
2021/03/21 11:00:30;;;;;;;24.13;20.83;;;3.50;99.90;;;;;;5004183;28;20030;-70
2021/03/21 11:03:01;;;;;;;25.00;20.20;;;3.60;99.90;;;;;;5004794;28;20099;-70
2021/03/21 11:06:00;;;;;;;24.45;20.90;;;3.60;99.90;;;;;;5001481;28;20026;-70
2021/03/21 11:08:28;;;;;;;23.45;20.63;;;3.80;99.90;;;;;;5003598;28;20054;-71
2021/03/21 11:10:57;;;;;;;22.88;20.38;;;4.00;99.90;;;;;;5011192;28;20046;-70
2021/03/21 11:13:32;;;;;;;24.90;20.73;;;3.90;99.90;;;;;;5008914;28;20030;-71
2021/03/21 11:16:07;;;;;;;22.92;20.40;;;4.00;99.90;;;;;;5011255;28;20484;-71
2021/03/21 11:18:33;;;;;;;26.40;20.08;;;4.10;99.90;;;;;;5011438;28;20029;-70
2021/03/21 11:21:14;;;;;;;22.98;20.13;;;4.10;99.90;;;;;;5009011;28;20026;-70
2021/03/21 11:23:53;;;;;;;23.17;19.80;;;4.20;99.90;;;;;;5019147;28;20030;-70
2021/03/21 11:26:33;;;;;;;26.63;20.83;;;4.30;99.90;;;;;;5011336;28;20029;-71
2021/03/21 11:29:01;;;;;;;24.50;19.05;;;4.60;99.90;;;;;;4996414;28;20132;-70
2021/03/21 11:31:43;;;;;;;22.35;19.95;;;4.80;99.90;;;;;;5009897;28;20080;-70
2021/03/21 11:34:29;;;;;;;21.23;18.05;;;4.90;99.90;;;;;;5011306;28;20026;-70
2021/03/21 11:37:25;;;;;;;24.30;19.73;;;5.10;99.90;;;;;;5011547;28;20037;-71
2021/03/21 11:40:02;;;;;;;20.83;18.42;;;5.40;99.90;;;;;;5011249;28;20411;-70
2021/03/21 11:42:35;;;;;;;21.55;17.27;;;5.60;99.90;;;;;;5011900;28;20033;-70
2021/03/21 11:45:26;;;;;;;21.65;17.90;;;5.60;99.90;;;;;;5015088;28;20018;-70
2021/03/21 11:47:55;;;;;;;20.23;17.27;;;5.90;99.90;;;;;;5014857;28;20029;-70
2021/03/21 11:50:32;;;;;;;19.38;16.52;;;6.00;99.90;;;;;;5013601;28;20029;-70
2021/03/21 11:53:00;;;;;;;18.27;16.20;;;6.00;99.90;;;;;;5013553;28;20026;-71
2021/03/21 11:55:30;;;;;;;16.38;14.27;;;6.10;99.90;;;;;;5014888;28;20033;-70
2021/03/21 11:58:15;;;;;;;15.48;13.52;;;6.20;99.90;;;;;;5014918;28;20113;-71
2021/03/21 12:00:46;;;;;;;13.95;12.38;;;6.00;99.90;;;;;;5014616;28;20030;-71
2021/03/21 12:03:20;;;;;;;13.55;12.10;;;5.90;99.90;;;;;;5014752;28;20068;-70
2021/03/21 12:06:03;;;;;;;14.55;11.05;;;5.90;99.90;;;;;;5013973;28;20105;-70
2021/03/21 12:08:37;;;;;;;13.88;11.82;;;5.90;99.90;;;;;;5009221;28;20054;-70
2021/03/21 12:11:24;;;;;;;12.45;11.15;;;6.10;99.90;;;;;;5013662;28;20022;-70
2021/03/21 12:13:50;;;;;;;12.63;10.65;;;6.20;99.90;;;;;;5010726;28;20022;-72
2021/03/21 12:16:41;;;;;;;12.57;11.25;;;6.50;99.90;;;;;;5009433;28;20014;-71
2021/03/21 12:19:33;;;;;;;11.43;9.40;;;6.40;99.90;;;;;;5008431;28;20054;-70
2021/03/21 12:22:24;;;;;;;10.40;9.35;;;6.50;99.90;;;;;;5014247;28;20025;-70
2021/03/21 12:24:56;;;;;;;12.98;10.10;;;6.50;99.90;;;;;;5001782;28;20022;-70
2021/03/21 12:27:35;;;;;;;10.43;9.30;;;6.60;99.90;;;;;;5014252;28;20409;-71
2021/03/21 12:30:17;;;;;;;11.23;9.57;;;6.50;99.90;;;;;;5014351;28;20053;-71
2021/03/21 12:32:45;;;;;;;11.18;10.02;;;6.30;99.90;;;;;;5013413;28;20503;-71
2021/03/21 12:35:23;;;;;;;10.52;9.27;;;6.20;99.90;;;;;;5014169;28;20032;-71
2021/03/21 12:38:00;;;;;;;10.73;9.63;;;6.10;99.90;;;;;;5014097;28;20049;-70
2021/03/21 12:40:41;;;;;;;10.48;8.63;;;6.00;99.90;;;;;;5012778;28;20026;-71
2021/03/21 12:43:27;;;;;;;9.55;8.55;;;6.00;99.90;;;;;;5024077;28;20128;-71
2021/03/21 12:46:08;;;;;;;10.05;8.65;;;6.00;99.90;;;;;;5033937;28;20025;-71
2021/03/21 12:48:45;;;;;;;12.80;9.38;;;6.00;99.90;;;;;;5015702;28;20431;-71
2021/03/21 12:51:31;;;;;;;12.23;9.27;;;6.00;99.90;;;;;;5013764;28;20060;-70
2021/03/21 12:53:58;;;;;;;10.85;9.75;;;6.00;99.90;;;;;;5013674;28;20489;-70
2021/03/21 12:56:24;;;;;;;12.70;11.18;;;6.00;99.90;;;;;;5014040;28;20380;-70
2021/03/21 12:58:50;;;;;;;12.70;11.35;;;6.00;99.90;;;;;;5013848;28;20030;-70
2021/03/21 13:01:16;;;;;;;13.05;10.32;;;5.90;99.90;;;;;;5013632;28;20061;-70
2021/03/21 13:03:41;;;;;;;11.88;10.68;;;6.10;99.90;;;;;;5013938;28;20036;-71
2021/03/21 13:06:07;;;;;;;11.10;9.77;;;6.80;99.90;;;;;;5014116;28;20038;-70
2021/03/21 13:08:33;;;;;;;10.00;9.00;;;7.80;99.90;;;;;;5012059;28;20080;-71
2021/03/21 13:11:01;;;;;;;10.75;9.65;;;8.40;99.90;;;;;;5013362;28;20036;-71
2021/03/21 13:13:27;;;;;;;11.13;9.95;;;8.10;99.90;;;;;;5013529;28;20026;-70
2021/03/21 13:15:53;;;;;;;12.10;9.68;;;8.00;99.90;;;;;;5013539;28;20584;-71
2021/03/21 13:18:19;;;;;;;11.00;9.45;;;7.90;99.90;;;;;;5013450;28;20045;-70
2021/03/21 13:20:47;;;;;;;10.75;9.40;;;8.10;99.90;;;;;;5013174;28;20033;-71
2021/03/21 13:23:13;;;;;;;11.32;9.65;;;7.60;99.90;;;;;;5018397;28;20032;-71
2021/03/21 13:25:39;;;;;;;11.15;9.00;;;7.30;99.90;;;;;;5019196;28;20042;-70
2021/03/21 13:28:06;;;;;;;9.55;8.63;;;7.10;99.90;;;;;;5011725;28;20037;-70
2021/03/21 13:30:35;;;;;;;9.77;8.77;;;6.90;99.90;;;;;;5013216;28;20030;-70
2021/03/21 13:33:01;;;;;;;10.85;8.23;;;6.90;99.90;;;;;;5012950;28;20018;-71